sensor_id;sensor_type;location;lat;lon;timestamp;pressure;altitude;pressure_sealevel;temperature;humidity
22389;BME280;11362;48.102;11.620;2023-02-17T00:00:07;96058.28;;;23.53;33.38
22389;BME280;11362;48.102;11.620;2023-02-17T00:02:33;96054.72;;;23.52;33.73
22389;BME280;11362;48.102;11.620;2023-02-17T00:04:59;96051.16;;;23.52;33.39
22389;BME280;11362;48.102;11.620;2023-02-17T00:07:24;96054.72;;;23.52;33.60
22389;BME280;11362;48.102;11.620;2023-02-17T00:09:49;96056.72;;;23.52;33.44
22389;BME280;11362;48.102;11.620;2023-02-17T00:12:14;96053.94;;;23.52;33.53
22389;BME280;11362;48.102;11.620;2023-02-17T00:14:40;96048.41;;;23.48;33.33
22389;BME280;11362;48.102;11.620;2023-02-17T00:17:05;96051.16;;;23.48;33.50
22389;BME280;11362;48.102;11.620;2023-02-17T00:19:31;96050.75;;;23.50;33.33
22389;BME280;11362;48.102;11.620;2023-02-17T00:22:00;96051.16;;;23.48;33.20
22389;BME280;11362;48.102;11.620;2023-02-17T00:24:29;96044.44;;;23.49;33.36
22389;BME280;11362;48.102;11.620;2023-02-17T00:26:55;96051.56;;;23.47;33.33
22389;BME280;11362;48.102;11.620;2023-02-17T00:29:20;96050.75;;;23.46;33.22
22389;BME280;11362;48.102;11.620;2023-02-17T00:31:46;96050.34;;;23.48;33.17
22389;BME280;11362;48.102;11.620;2023-02-17T00:34:12;96046.00;;;23.47;33.04
22389;BME280;11362;48.102;11.620;2023-02-17T00:36:37;96050.75;;;23.46;32.99
22389;BME280;11362;48.102;11.620;2023-02-17T00:39:04;96051.56;;;23.47;33.20
22389;BME280;11362;48.102;11.620;2023-02-17T00:41:30;96054.72;;;23.45;33.03
22389;BME280;11362;48.102;11.620;2023-02-17T00:43:55;96050.75;;;23.46;33.09
22389;BME280;11362;48.102;11.620;2023-02-17T00:46:21;96049.16;;;23.45;33.11
22389;BME280;11362;48.102;11.620;2023-02-17T00:48:47;96053.94;;;23.45;33.05
22389;BME280;11362;48.102;11.620;2023-02-17T00:51:13;96056.28;;;23.46;33.06
22389;BME280;11362;48.102;11.620;2023-02-17T00:53:39;96050.38;;;23.44;32.94
22389;BME280;11362;48.102;11.620;2023-02-17T00:56:04;96052.34;;;23.44;33.08
22389;BME280;11362;48.102;11.620;2023-02-17T00:58:30;96052.34;;;23.44;33.06
22389;BME280;11362;48.102;11.620;2023-02-17T01:00:56;96059.88;;;23.43;32.94
22389;BME280;11362;48.102;11.620;2023-02-17T01:03:22;96053.53;;;23.43;32.86
22389;BME280;11362;48.102;11.620;2023-02-17T01:05:48;96048.78;;;23.43;32.90
22389;BME280;11362;48.102;11.620;2023-02-17T01:08:14;96046.00;;;23.43;32.88
22389;BME280;11362;48.102;11.620;2023-02-17T01:10:42;96049.97;;;23.42;32.83
22389;BME280;11362;48.102;11.620;2023-02-17T01:13:09;96044.44;;;23.42;32.83
22389;BME280;11362;48.102;11.620;2023-02-17T01:15:44;96045.63;;;23.42;32.78
22389;BME280;11362;48.102;11.620;2023-02-17T01:18:09;96048.41;;;23.42;32.66
22389;BME280;11362;48.102;11.620;2023-02-17T01:20:36;96053.94;;;23.42;32.66
22389;BME280;11362;48.102;11.620;2023-02-17T01:23:03;96045.63;;;23.42;32.68
22389;BME280;11362;48.102;11.620;2023-02-17T01:25:29;96037.31;;;23.42;32.67
22389;BME280;11362;48.102;11.620;2023-02-17T01:27:55;96037.31;;;23.42;32.55
22389;BME280;11362;48.102;11.620;2023-02-17T01:30:20;96041.25;;;23.40;32.67
22389;BME280;11362;48.102;11.620;2023-02-17T01:32:45;96035.69;;;23.40;32.50
22389;BME280;11362;48.102;11.620;2023-02-17T01:35:12;96034.13;;;23.39;32.55
22389;BME280;11362;48.102;11.620;2023-02-17T01:37:37;96034.91;;;23.40;32.50
22389;BME280;11362;48.102;11.620;2023-02-17T01:40:03;96032.91;;;23.40;32.47
22389;BME280;11362;48.102;11.620;2023-02-17T01:42:28;96032.91;;;23.40;32.49
22389;BME280;11362;48.102;11.620;2023-02-17T01:47:41;96034.91;;;23.40;32.45
22389;BME280;11362;48.102;11.620;2023-02-17T01:50:07;96035.69;;;23.40;32.31
22389;BME280;11362;48.102;11.620;2023-02-17T01:52:33;96027.81;;;23.39;32.39
22389;BME280;11362;48.102;11.620;2023-02-17T01:55:03;96028.56;;;23.39;32.31
22389;BME280;11362;48.102;11.620;2023-02-17T01:57:32;96028.56;;;23.39;32.42
22389;BME280;11362;48.102;11.620;2023-02-17T02:00:00;96025.81;;;23.39;32.36
22389;BME280;11362;48.102;11.620;2023-02-17T02:02:26;96027.00;;;23.38;32.37
22389;BME280;11362;48.102;11.620;2023-02-17T02:04:52;96027.00;;;23.38;32.39
22389;BME280;11362;48.102;11.620;2023-02-17T02:07:21;96026.22;;;23.38;32.36
22389;BME280;11362;48.102;11.620;2023-02-17T02:09:51;96024.22;;;23.38;32.44
22389;BME280;11362;48.102;11.620;2023-02-17T02:12:23;96019.88;;;23.38;32.36
22389;BME280;11362;48.102;11.620;2023-02-17T02:14:49;96012.75;;;23.37;32.31
22389;BME280;11362;48.102;11.620;2023-02-17T02:17:36;96020.69;;;23.38;32.18
22389;BME280;11362;48.102;11.620;2023-02-17T02:22:57;96017.09;;;23.38;32.46
22389;BME280;11362;48.102;11.620;2023-02-17T02:25:46;96019.88;;;23.38;32.10
22389;BME280;11362;48.102;11.620;2023-02-17T02:31:43;96019.88;;;23.38;31.95
22389;BME280;11362;48.102;11.620;2023-02-17T02:34:19;96021.84;;;23.37;32.07
22389;BME280;11362;48.102;11.620;2023-02-17T02:36:55;96023.84;;;23.37;32.18
22389;BME280;11362;48.102;11.620;2023-02-17T02:39:27;96023.03;;;23.36;32.11
22389;BME280;11362;48.102;11.620;2023-02-17T02:41:57;96025.03;;;23.36;31.95
22389;BME280;11362;48.102;11.620;2023-02-17T02:44:24;96025.81;;;23.36;31.89
22389;BME280;11362;48.102;11.620;2023-02-17T02:47:34;96030.16;;;23.37;31.89
22389;BME280;11362;48.102;11.620;2023-02-17T02:49:51;96031.75;;;23.35;31.78
22389;BME280;11362;48.102;11.620;2023-02-17T02:52:33;96030.56;;;23.36;31.80
22389;BME280;11362;48.102;11.620;2023-02-17T02:55:06;96026.22;;;23.35;31.89
22389;BME280;11362;48.102;11.620;2023-02-17T03:03:22;96020.69;;;23.35;31.95
22389;BME280;11362;48.102;11.620;2023-02-17T03:06:33;96019.47;;;23.36;31.82
22389;BME280;11362;48.102;11.620;2023-02-17T03:09:03;96017.50;;;23.36;31.90
22389;BME280;11362;48.102;11.620;2023-02-17T03:11:31;96012.38;;;23.35;31.96
22389;BME280;11362;48.102;11.620;2023-02-17T03:14:12;96004.44;;;23.37;31.71
22389;BME280;11362;48.102;11.620;2023-02-17T03:16:39;96005.63;;;23.36;31.79
22389;BME280;11362;48.102;11.620;2023-02-17T03:19:05;96005.63;;;23.36;31.82
22389;BME280;11362;48.102;11.620;2023-02-17T03:21:37;96003.25;;;23.34;31.93
22389;BME280;11362;48.102;11.620;2023-02-17T03:24:04;95995.31;;;23.36;31.91
22389;BME280;11362;48.102;11.620;2023-02-17T03:26:29;96005.63;;;23.36;31.87
22389;BME280;11362;48.102;11.620;2023-02-17T03:28:55;96000.06;;;23.36;31.83
22389;BME280;11362;48.102;11.620;2023-02-17T03:31:20;95991.75;;;23.36;31.74
22389;BME280;11362;48.102;11.620;2023-02-17T03:33:45;95996.88;;;23.33;31.77
22389;BME280;11362;48.102;11.620;2023-02-17T03:36:11;95994.53;;;23.36;31.73
22389;BME280;11362;48.102;11.620;2023-02-17T03:38:36;95983.84;;;23.34;32.15
22389;BME280;11362;48.102;11.620;2023-02-17T03:41:01;95986.59;;;23.34;31.74
22389;BME280;11362;48.102;11.620;2023-02-17T03:43:27;95990.19;;;23.35;31.79
22389;BME280;11362;48.102;11.620;2023-02-17T03:45:52;95986.22;;;23.36;31.58
22389;BME280;11362;48.102;11.620;2023-02-17T03:48:17;95987.41;;;23.35;31.57
22389;BME280;11362;48.102;11.620;2023-02-17T03:50:43;95981.88;;;23.35;31.79
22389;BME280;11362;48.102;11.620;2023-02-17T03:53:10;95981.88;;;23.35;31.64
22389;BME280;11362;48.102;11.620;2023-02-17T03:55:35;95978.69;;;23.36;31.77
22389;BME280;11362;48.102;11.620;2023-02-17T03:58:00;95981.06;;;23.34;31.78
22389;BME280;11362;48.102;11.620;2023-02-17T04:00:25;95981.88;;;23.35;31.71
22389;BME280;11362;48.102;11.620;2023-02-17T04:02:51;95972.75;;;23.34;31.62
22389;BME280;11362;48.102;11.620;2023-02-17T04:05:16;95977.91;;;23.36;31.61
22389;BME280;11362;48.102;11.620;2023-02-17T04:07:41;95979.09;;;23.35;31.65
22389;BME280;11362;48.102;11.620;2023-02-17T04:10:07;95977.91;;;23.36;31.54
22389;BME280;11362;48.102;11.620;2023-02-17T04:12:32;95970.78;;;23.35;31.54
22389;BME280;11362;48.102;11.620;2023-02-17T04:14:58;95975.53;;;23.34;31.55
22389;BME280;11362;48.102;11.620;2023-02-17T04:17:23;95981.88;;;23.35;31.51
22389;BME280;11362;48.102;11.620;2023-02-17T04:19:48;95970.78;;;23.35;31.49
22389;BME280;11362;48.102;11.620;2023-02-17T04:22:13;95973.94;;;23.37;31.47
22389;BME280;11362;48.102;11.620;2023-02-17T04:24:39;95972.34;;;23.36;31.50
22389;BME280;11362;48.102;11.620;2023-02-17T04:27:04;95968.38;;;23.37;31.71
22389;BME280;11362;48.102;11.620;2023-02-17T04:29:31;95969.59;;;23.36;31.46
22389;BME280;11362;48.102;11.620;2023-02-17T04:31:56;95965.22;;;23.35;31.52
22389;BME280;11362;48.102;11.620;2023-02-17T04:34:22;95962.47;;;23.35;31.43
22389;BME280;11362;48.102;11.620;2023-02-17T04:36:47;95966.81;;;23.36;31.46
22389;BME280;11362;48.102;11.620;2023-02-17T04:39:12;95972.34;;;23.36;31.58
22389;BME280;11362;48.102;11.620;2023-02-17T04:41:38;95975.13;;;23.36;31.44
22389;BME280;11362;48.102;11.620;2023-02-17T04:44:03;95964.44;;;23.34;31.54
22389;BME280;11362;48.102;11.620;2023-02-17T04:46:28;95968.38;;;23.37;31.61
22389;BME280;11362;48.102;11.620;2023-02-17T04:48:54;95971.94;;;23.37;31.11
22389;BME280;11362;48.102;11.620;2023-02-17T04:51:19;95969.59;;;23.36;31.49
22389;BME280;11362;48.102;11.620;2023-02-17T04:53:44;95962.03;;;23.36;31.50
22389;BME280;11362;48.102;11.620;2023-02-17T04:56:10;95961.25;;;23.36;31.46
22389;BME280;11362;48.102;11.620;2023-02-17T04:58:35;95957.28;;;23.37;31.34
22389;BME280;11362;48.102;11.620;2023-02-17T05:01:00;95953.72;;;23.36;31.44
22389;BME280;11362;48.102;11.620;2023-02-17T05:03:25;95962.03;;;23.36;31.34
22389;BME280;11362;48.102;11.620;2023-02-17T05:05:51;95948.59;;;23.35;31.42
22389;BME280;11362;48.102;11.620;2023-02-17T05:08:16;95948.59;;;23.35;31.31
22389;BME280;11362;48.102;11.620;2023-02-17T05:10:41;95944.63;;;23.36;30.89
22389;BME280;11362;48.102;11.620;2023-02-17T05:13:07;95942.25;;;23.34;31.39
22389;BME280;11362;48.102;11.620;2023-02-17T05:15:32;95935.91;;;23.33;31.20
22389;BME280;11362;48.102;11.620;2023-02-17T05:17:57;95928.78;;;23.36;31.27
22389;BME280;11362;48.102;11.620;2023-02-17T05:20:23;95934.75;;;23.35;31.29
22389;BME280;11362;48.102;11.620;2023-02-17T05:22:48;95934.31;;;23.36;31.11
22389;BME280;11362;48.102;11.620;2023-02-17T05:25:13;95928.78;;;23.36;31.05
22389;BME280;11362;48.102;11.620;2023-02-17T05:27:39;95931.53;;;23.36;31.29
22389;BME280;11362;48.102;11.620;2023-02-17T05:30:04;95926.41;;;23.35;31.38
22389;BME280;11362;48.102;11.620;2023-02-17T05:32:30;95923.22;;;23.36;31.21
22389;BME280;11362;48.102;11.620;2023-02-17T05:34:55;95924.03;;;23.37;31.12
22389;BME280;11362;48.102;11.620;2023-02-17T05:37:21;95926.00;;;23.36;31.21
22389;BME280;11362;48.102;11.620;2023-02-17T05:39:46;95931.16;;;23.38;31.13
22389;BME280;11362;48.102;11.620;2023-02-17T05:42:11;95930.34;;;23.37;31.29
22389;BME280;11362;48.102;11.620;2023-02-17T05:44:37;95935.13;;;23.37;31.12
22389;BME280;11362;48.102;11.620;2023-02-17T05:47:02;95933.13;;;23.37;30.99
22389;BME280;11362;48.102;11.620;2023-02-17T05:49:27;95939.84;;;23.36;30.74
22389;BME280;11362;48.102;11.620;2023-02-17T05:51:53;95936.31;;;23.36;30.99
22389;BME280;11362;48.102;11.620;2023-02-17T05:54:18;95931.16;;;23.38;31.02
22389;BME280;11362;48.102;11.620;2023-02-17T05:56:43;95935.13;;;23.37;30.84
22389;BME280;11362;48.102;11.620;2023-02-17T05:59:09;95936.69;;;23.38;30.99
22389;BME280;11362;48.102;11.620;2023-02-17T06:01:34;95932.34;;;23.37;31.04
22389;BME280;11362;48.102;11.620;2023-02-17T06:03:59;95935.88;;;23.37;31.00
22389;BME280;11362;48.102;11.620;2023-02-17T06:06:25;95940.66;;;23.37;30.93
22389;BME280;11362;48.102;11.620;2023-02-17T06:08:50;95939.84;;;23.36;30.91
22389;BME280;11362;48.102;11.620;2023-02-17T06:11:16;95937.88;;;23.37;30.94
22389;BME280;11362;48.102;11.620;2023-02-17T06:13:41;95935.13;;;23.37;30.85
22389;BME280;11362;48.102;11.620;2023-02-17T06:16:06;95939.47;;;23.38;30.92
22389;BME280;11362;48.102;11.620;2023-02-17T06:18:32;95936.69;;;23.38;31.06
22389;BME280;11362;48.102;11.620;2023-02-17T06:20:57;95946.22;;;23.37;30.96
22389;BME280;11362;48.102;11.620;2023-02-17T06:23:24;95951.75;;;23.37;30.86
22389;BME280;11362;48.102;11.620;2023-02-17T06:25:49;95957.28;;;23.37;31.00
22389;BME280;11362;48.102;11.620;2023-02-17T06:28:15;95956.09;;;23.38;30.93
22389;BME280;11362;48.102;11.620;2023-02-17T06:30:40;95957.28;;;23.37;30.82
22389;BME280;11362;48.102;11.620;2023-02-17T06:33:06;95965.63;;;23.37;30.83
22389;BME280;11362;48.102;11.620;2023-02-17T06:35:31;95957.28;;;23.37;30.89
22389;BME280;11362;48.102;11.620;2023-02-17T06:37:56;95967.59;;;23.36;30.75
22389;BME280;11362;48.102;11.620;2023-02-17T06:40:22;95972.34;;;23.36;30.74
22389;BME280;11362;48.102;11.620;2023-02-17T06:42:47;95973.13;;;23.36;30.84
22389;BME280;11362;48.102;11.620;2023-02-17T06:45:13;95971.16;;;23.37;30.88
22389;BME280;11362;48.102;11.620;2023-02-17T06:47:38;95966.00;;;23.38;31.31
22389;BME280;11362;48.102;11.620;2023-02-17T06:50:04;95972.34;;;23.42;31.51
22389;BME280;11362;48.102;11.620;2023-02-17T06:52:29;95969.94;;;23.44;31.58
22389;BME280;11362;48.102;11.620;2023-02-17T06:54:55;95986.19;;;23.46;31.84
22389;BME280;11362;48.102;11.620;2023-02-17T06:57:20;95967.56;;;23.46;31.99
22389;BME280;11362;48.102;11.620;2023-02-17T06:59:45;95967.56;;;23.46;31.83
22389;BME280;11362;48.102;11.620;2023-02-17T07:02:12;95966.00;;;23.45;31.71
22389;BME280;11362;48.102;11.620;2023-02-17T07:04:41;95966.00;;;23.45;31.62
22389;BME280;11362;48.102;11.620;2023-02-17T07:07:06;95963.22;;;23.45;31.88
22389;BME280;11362;48.102;11.620;2023-02-17T07:09:32;95966.00;;;23.45;31.97
22389;BME280;11362;48.102;11.620;2023-02-17T07:11:57;95957.28;;;23.47;32.24
22389;BME280;11362;48.102;11.620;2023-02-17T07:14:25;95958.47;;;23.49;32.27
22389;BME280;11362;48.102;11.620;2023-02-17T07:16:51;95957.66;;;23.52;32.66
22389;BME280;11362;48.102;11.620;2023-02-17T07:19:17;95948.94;;;23.54;32.70
22389;BME280;11362;48.102;11.620;2023-02-17T07:21:42;95948.53;;;23.55;32.98
22389;BME280;11362;48.102;11.620;2023-02-17T07:24:08;95948.13;;;23.57;32.97
22389;BME280;11362;48.102;11.620;2023-02-17T07:26:35;95954.06;;;23.59;33.10
22389;BME280;11362;48.102;11.620;2023-02-17T07:29:01;95953.66;;;23.60;33.08
22389;BME280;11362;48.102;11.620;2023-02-17T07:31:26;95958.00;;;23.61;33.26
22389;BME280;11362;48.102;11.620;2023-02-17T07:33:51;95967.16;;;23.58;33.29
22389;BME280;11362;48.102;11.620;2023-02-17T07:36:17;95970.31;;;23.60;33.32
22389;BME280;11362;48.102;11.620;2023-02-17T07:38:42;95967.91;;;23.59;33.29
22389;BME280;11362;48.102;11.620;2023-02-17T07:41:13;95969.91;;;23.58;33.15
22389;BME280;11362;48.102;11.620;2023-02-17T07:43:39;95973.88;;;23.57;33.11
22389;BME280;11362;48.102;11.620;2023-02-17T07:46:06;95971.50;;;23.56;33.08
22389;BME280;11362;48.102;11.620;2023-02-17T07:48:32;95973.47;;;23.55;33.33
22389;BME280;11362;48.102;11.620;2023-02-17T07:51:04;95973.09;;;23.57;33.27
22389;BME280;11362;48.102;11.620;2023-02-17T07:53:30;95972.31;;;23.56;33.39
22389;BME280;11362;48.102;11.620;2023-02-17T07:55:55;95972.31;;;23.56;33.34
22389;BME280;11362;48.102;11.620;2023-02-17T07:58:20;95976.25;;;23.55;33.43
22389;BME280;11362;48.102;11.620;2023-02-17T08:00:45;95973.47;;;23.55;33.43
22389;BME280;11362;48.102;11.620;2023-02-17T08:03:11;95976.25;;;23.55;33.60
22389;BME280;11362;48.102;11.620;2023-02-17T08:05:38;95976.25;;;23.55;33.50
22389;BME280;11362;48.102;11.620;2023-02-17T08:08:04;95980.22;;;23.54;33.38
22389;BME280;11362;48.102;11.620;2023-02-17T08:10:29;95987.75;;;23.54;33.28
22389;BME280;11362;48.102;11.620;2023-02-17T08:12:54;95976.66;;;23.54;33.29
22389;BME280;11362;48.102;11.620;2023-02-17T08:15:20;95978.63;;;23.53;33.31
22389;BME280;11362;48.102;11.620;2023-02-17T08:17:45;95976.25;;;23.55;33.69
22389;BME280;11362;48.102;11.620;2023-02-17T08:20:10;95971.50;;;23.56;33.77
22389;BME280;11362;48.102;11.620;2023-02-17T08:22:36;95965.16;;;23.55;33.59
22389;BME280;11362;48.102;11.620;2023-02-17T08:25:01;95975.47;;;23.55;33.59
22389;BME280;11362;48.102;11.620;2023-02-17T08:27:26;95975.47;;;23.55;33.47
22389;BME280;11362;48.102;11.620;2023-02-17T08:29:52;95981.78;;;23.55;33.60
22389;BME280;11362;48.102;11.620;2023-02-17T08:32:17;95980.22;;;23.54;33.55
22389;BME280;11362;48.102;11.620;2023-02-17T08:34:43;95984.56;;;23.55;33.65
22389;BME280;11362;48.102;11.620;2023-02-17T08:37:09;95980.63;;;23.60;33.94
22389;BME280;11362;48.102;11.620;2023-02-17T08:39:35;95977.84;;;23.63;34.22
22389;BME280;11362;48.102;11.620;2023-02-17T08:42:01;95979.41;;;23.64;34.14
22389;BME280;11362;48.102;11.620;2023-02-17T08:44:27;95975.44;;;23.65;34.22
22389;BME280;11362;48.102;11.620;2023-02-17T08:46:53;95977.84;;;23.67;34.16
22389;BME280;11362;48.102;11.620;2023-02-17T08:49:21;95974.66;;;23.65;34.18
22389;BME280;11362;48.102;11.620;2023-02-17T08:51:46;95989.72;;;23.64;34.47
22389;BME280;11362;48.102;11.620;2023-02-17T08:54:12;95990.91;;;23.66;34.44
22389;BME280;11362;48.102;11.620;2023-02-17T08:56:38;95990.09;;;23.69;34.87
22389;BME280;11362;48.102;11.620;2023-02-17T08:59:05;95996.44;;;23.70;34.70
22389;BME280;11362;48.102;11.620;2023-02-17T09:01:31;95982.56;;;23.70;34.69
22389;BME280;11362;48.102;11.620;2023-02-17T09:03:58;95985.34;;;23.70;34.81
22389;BME280;11362;48.102;11.620;2023-02-17T09:06:49;96000.41;;;23.72;35.06
22389;BME280;11362;48.102;11.620;2023-02-17T09:09:17;96000.00;;;23.74;35.14
22389;BME280;11362;48.102;11.620;2023-02-17T09:11:44;95997.63;;;23.72;34.94
22389;BME280;11362;48.102;11.620;2023-02-17T09:14:10;95998.41;;;23.73;35.00
22389;BME280;11362;48.102;11.620;2023-02-17T09:16:35;96009.91;;;23.71;35.10
22389;BME280;11362;48.102;11.620;2023-02-17T09:19:01;96010.69;;;23.72;34.87
22389;BME280;11362;48.102;11.620;2023-02-17T09:21:27;96009.09;;;23.71;35.01
22389;BME280;11362;48.102;11.620;2023-02-17T09:23:52;96010.31;;;23.70;34.97
22389;BME280;11362;48.102;11.620;2023-02-17T09:26:18;96006.72;;;23.69;34.91
22389;BME280;11362;48.102;11.620;2023-02-17T09:28:43;96013.47;;;23.68;35.05
22389;BME280;11362;48.102;11.620;2023-02-17T09:31:14;95998.41;;;23.69;34.99
22389;BME280;11362;48.102;11.620;2023-02-17T09:33:40;96007.91;;;23.68;35.04
22389;BME280;11362;48.102;11.620;2023-02-17T09:36:07;95994.47;;;23.70;35.37
22389;BME280;11362;48.102;11.620;2023-02-17T09:38:34;96009.91;;;23.71;35.22
22389;BME280;11362;48.102;11.620;2023-02-17T09:41:05;96012.69;;;23.71;35.41
22389;BME280;11362;48.102;11.620;2023-02-17T09:43:33;96005.94;;;23.72;35.54
22389;BME280;11362;48.102;11.620;2023-02-17T09:46:04;96022.59;;;23.72;35.51
22389;BME280;11362;48.102;11.620;2023-02-17T09:48:31;96014.25;;;23.72;35.39
22389;BME280;11362;48.102;11.620;2023-02-17T09:51:01;96023.78;;;23.71;35.33
22389;BME280;11362;48.102;11.620;2023-02-17T09:53:36;96043.19;;;23.71;35.60
22389;BME280;11362;48.102;11.620;2023-02-17T09:56:04;96018.25;;;23.68;34.85
22389;BME280;11362;48.102;11.620;2023-02-17T09:58:52;96010.31;;;23.66;34.77
22389;BME280;11362;48.102;11.620;2023-02-17T10:01:21;96007.91;;;23.68;34.48
22389;BME280;11362;48.102;11.620;2023-02-17T10:04:06;96019.00;;;23.72;34.55
22389;BME280;11362;48.102;11.620;2023-02-17T10:06:59;96015.47;;;23.71;34.43
22389;BME280;11362;48.102;11.620;2023-02-17T10:09:47;96015.47;;;23.71;34.52
22389;BME280;11362;48.102;11.620;2023-02-17T10:12:37;96028.53;;;23.71;34.52
22389;BME280;11362;48.102;11.620;2023-02-17T10:15:08;96015.03;;;23.73;34.84
22389;BME280;11362;48.102;11.620;2023-02-17T10:17:49;96010.28;;;23.73;34.91
22389;BME280;11362;48.102;11.620;2023-02-17T10:20:27;96018.22;;;23.78;34.79
22389;BME280;11362;48.102;11.620;2023-02-17T10:23:03;96013.84;;;23.81;34.72
22389;BME280;11362;48.102;11.620;2023-02-17T10:25:52;96013.84;;;23.81;34.88
22389;BME280;11362;48.102;11.620;2023-02-17T10:31:00;95993.63;;;23.80;34.81
22389;BME280;11362;48.102;11.620;2023-02-17T10:34:02;96004.34;;;23.82;34.79
22389;BME280;11362;48.102;11.620;2023-02-17T10:39:07;96003.16;;;23.79;34.86
22389;BME280;11362;48.102;11.620;2023-02-17T10:41:38;96005.53;;;23.81;34.57
22389;BME280;11362;48.102;11.620;2023-02-17T10:44:08;95997.19;;;23.84;34.75
22389;BME280;11362;48.102;11.620;2023-02-17T10:46:38;95994.84;;;23.86;34.63
22389;BME280;11362;48.102;11.620;2023-02-17T10:49:04;96006.31;;;23.88;33.87
22389;BME280;11362;48.102;11.620;2023-02-17T10:51:30;95988.09;;;23.80;34.01
22389;BME280;11362;48.102;11.620;2023-02-17T10:54:06;95993.25;;;23.78;33.84
22389;BME280;11362;48.102;11.620;2023-02-17T10:56:43;95988.47;;;23.79;33.89
22389;BME280;11362;48.102;11.620;2023-02-17T10:59:22;95986.50;;;23.83;33.76
22389;BME280;11362;48.102;11.620;2023-02-17T11:01:48;95989.66;;;23.88;33.70
22389;BME280;11362;48.102;11.620;2023-02-17T11:04:13;96001.56;;;23.92;33.74
22389;BME280;11362;48.102;11.620;2023-02-17T11:06:44;95985.69;;;23.93;33.46
22389;BME280;11362;48.102;11.620;2023-02-17T11:09:18;95997.56;;;23.97;33.53
22389;BME280;11362;48.102;11.620;2023-02-17T11:14:31;95992.03;;;23.97;33.23
22389;BME280;11362;48.102;11.620;2023-02-17T11:17:13;95959.91;;;23.99;33.25
22389;BME280;11362;48.102;11.620;2023-02-17T11:19:38;95969.41;;;23.95;33.35
22389;BME280;11362;48.102;11.620;2023-02-17T11:22:17;95965.88;;;23.91;33.11
22389;BME280;11362;48.102;11.620;2023-02-17T11:24:57;95973.03;;;23.88;33.32
22389;BME280;11362;48.102;11.620;2023-02-17T11:27:24;95969.03;;;23.89;33.26
22389;BME280;11362;48.102;11.620;2023-02-17T11:29:49;95970.22;;;23.92;33.25
22389;BME280;11362;48.102;11.620;2023-02-17T11:32:15;95970.63;;;23.90;33.22
22389;BME280;11362;48.102;11.620;2023-02-17T11:34:42;95972.22;;;23.88;33.28
22389;BME280;11362;48.102;11.620;2023-02-17T11:42:22;95963.09;;;23.91;33.29
22389;BME280;11362;48.102;11.620;2023-02-17T11:44:48;95950.00;;;23.91;33.24
22389;BME280;11362;48.102;11.620;2023-02-17T11:50:11;95952.00;;;23.94;33.33
22389;BME280;11362;48.102;11.620;2023-02-17T11:53:07;95921.09;;;23.89;33.21
22389;BME280;11362;48.102;11.620;2023-02-17T11:59:03;95969.84;;;23.79;32.26
22389;BME280;11362;48.102;11.620;2023-02-17T12:01:37;95945.78;;;23.48;31.02
22389;BME280;11362;48.102;11.620;2023-02-17T12:04:28;95939.03;;;23.53;31.28
22389;BME280;11362;48.102;11.620;2023-02-17T12:09:57;95926.72;;;23.64;31.96
22389;BME280;11362;48.102;11.620;2023-02-17T12:15:53;95917.19;;;23.72;33.09
22389;BME280;11362;48.102;11.620;2023-02-17T12:24:40;95911.16;;;23.88;35.25
22389;BME280;11362;48.102;11.620;2023-02-17T12:27:25;95924.63;;;23.93;35.48
22389;BME280;11362;48.102;11.620;2023-02-17T12:33:02;95978.19;;;23.86;35.50
22389;BME280;11362;48.102;11.620;2023-02-17T12:35:39;95977.38;;;23.82;35.59
22389;BME280;11362;48.102;11.620;2023-02-17T12:38:17;95973.41;;;23.80;35.70
22389;BME280;11362;48.102;11.620;2023-02-17T12:40:51;95971.84;;;23.75;35.17
22389;BME280;11362;48.102;11.620;2023-02-17T12:46:05;95957.19;;;23.75;34.98
22389;BME280;11362;48.102;11.620;2023-02-17T12:48:41;95958.41;;;23.74;35.24
22389;BME280;11362;48.102;11.620;2023-02-17T12:51:34;95953.25;;;23.72;35.02
22389;BME280;11362;48.102;11.620;2023-02-17T12:54:21;95961.94;;;23.71;35.26
22389;BME280;11362;48.102;11.620;2023-02-17T12:57:00;95950.09;;;23.70;35.13
22389;BME280;11362;48.102;11.620;2023-02-17T13:01:58;95936.59;;;23.72;35.80
22389;BME280;11362;48.102;11.620;2023-02-17T13:04:25;95934.59;;;23.76;36.67
22389;BME280;11362;48.102;11.620;2023-02-17T13:06:55;95933.78;;;23.79;36.73
22389;BME280;11362;48.102;11.620;2023-02-17T13:09:38;95935.38;;;23.80;36.64
22389;BME280;11362;48.102;11.620;2023-02-17T13:12:08;95916.75;;;23.81;37.05
22389;BME280;11362;48.102;11.620;2023-02-17T13:17:04;95921.50;;;23.80;37.26
22389;BME280;11362;48.102;11.620;2023-02-17T13:19:32;95896.53;;;23.80;37.17
22389;BME280;11362;48.102;11.620;2023-02-17T13:21:58;95901.69;;;23.82;37.27
22389;BME280;11362;48.102;11.620;2023-02-17T13:24:33;95911.59;;;23.79;36.99
22389;BME280;11362;48.102;11.620;2023-02-17T13:27:20;95885.06;;;23.78;36.52
22389;BME280;11362;48.102;11.620;2023-02-17T13:29:46;95884.66;;;23.76;36.36
22389;BME280;11362;48.102;11.620;2023-02-17T13:32:11;95895.38;;;23.74;36.20
22389;BME280;11362;48.102;11.620;2023-02-17T13:34:44;95889.03;;;23.74;36.14
22389;BME280;11362;48.102;11.620;2023-02-17T13:43:27;95930.22;;;23.75;35.78
22389;BME280;11362;48.102;11.620;2023-02-17T13:45:39;95924.31;;;23.73;35.91
22389;BME280;11362;48.102;11.620;2023-02-17T13:50:46;95935.00;;;23.75;35.87
22389;BME280;11362;48.102;11.620;2023-02-17T13:53:27;95925.09;;;23.74;35.72
22389;BME280;11362;48.102;11.620;2023-02-17T13:55:58;95913.22;;;23.73;35.66
22389;BME280;11362;48.102;11.620;2023-02-17T13:58:33;95904.06;;;23.76;35.60
22389;BME280;11362;48.102;11.620;2023-02-17T14:01:00;95916.34;;;23.75;35.62
22389;BME280;11362;48.102;11.620;2023-02-17T14:03:50;95905.69;;;23.74;35.50